Time;durP1;ratioP1;P1;durP2;ratioP2;P2;SDS_P1;SDS_P2;PMS_P1;PMS_P2;Temp;Humidity;BMP_temperature;BMP_pressure;BME280_temperature;BME280_humidity;BME280_pressure;Samples;Min_cycle;Max_cycle;Signal;HPM_P1;HPM_P2
2022/03/07 00:02:10;;;;;;;10.13;7.17;;;1.00;99.90;;;;;;5052585;28;20224;-75
2022/03/07 00:04:36;;;;;;;13.83;7.30;;;1.00;99.90;;;;;;5048227;28;20171;-75
2022/03/07 00:07:02;;;;;;;9.30;6.87;;;1.00;99.90;;;;;;5050899;28;20249;-74
2022/03/07 00:09:27;;;;;;;9.07;6.80;;;1.00;99.90;;;;;;5050509;28;20167;-75
2022/03/07 00:11:53;;;;;;;11.10;7.47;;;1.00;99.90;;;;;;5049427;28;20182;-75
2022/03/07 00:14:19;;;;;;;8.63;7.27;;;1.00;99.90;;;;;;5050906;28;20270;-77
2022/03/07 00:16:46;;;;;;;12.53;7.77;;;1.10;99.90;;;;;;5048661;28;20277;-77
2022/03/07 00:19:12;;;;;;;10.40;6.87;;;1.10;99.90;;;;;;5049222;28;20182;-75
2022/03/07 00:21:38;;;;;;;12.17;7.73;;;1.10;99.90;;;;;;5070661;28;20175;-77
2022/03/07 00:24:05;;;;;;;9.83;7.10;;;1.10;99.90;;;;;;5048356;28;20202;-77
2022/03/07 00:26:30;;;;;;;10.63;6.97;;;1.00;99.90;;;;;;5048869;28;20226;-75
2022/03/07 00:28:56;;;;;;;8.57;6.77;;;1.00;99.90;;;;;;5086065;28;20210;-77
2022/03/07 00:31:23;;;;;;;11.53;7.30;;;1.10;99.90;;;;;;5049641;28;20185;-75
2022/03/07 00:33:49;;;;;;;10.90;7.83;;;1.10;99.90;;;;;;5082894;28;20186;-75
2022/03/07 00:36:15;;;;;;;11.63;7.53;;;1.10;99.90;;;;;;5050789;28;20186;-76
2022/03/07 00:38:41;;;;;;;11.13;6.83;;;1.10;99.90;;;;;;5048934;28;20191;-77
2022/03/07 00:41:08;;;;;;;11.90;7.77;;;1.20;99.90;;;;;;5049912;28;20221;-78
2022/03/07 00:43:35;;;;;;;8.47;6.93;;;1.20;99.90;;;;;;5049200;28;20226;-76
2022/03/07 00:46:01;;;;;;;11.63;7.87;;;1.20;99.90;;;;;;5067758;28;20253;-75
2022/03/07 00:48:27;;;;;;;10.30;7.20;;;1.20;99.90;;;;;;5043823;28;20198;-77
2022/03/07 00:50:53;;;;;;;12.83;7.10;;;1.20;99.90;;;;;;5047830;28;20183;-77
2022/03/07 00:53:22;;;;;;;12.73;6.83;;;1.20;99.90;;;;;;5073460;28;20225;-76
2022/03/07 00:55:48;;;;;;;10.00;6.87;;;1.20;99.90;;;;;;5057393;28;20206;-75
2022/03/07 00:58:14;;;;;;;14.07;7.20;;;1.20;99.90;;;;;;5060845;28;20211;-74
2022/03/07 01:00:40;;;;;;;9.77;6.93;;;1.20;99.90;;;;;;5058950;28;20195;-76
2022/03/07 01:03:09;;;;;;;11.90;7.90;;;1.20;99.90;;;;;;5059972;28;20310;-75
2022/03/07 01:05:35;;;;;;;13.50;7.17;;;1.30;99.90;;;;;;5053861;28;20175;-76
2022/03/07 01:08:01;;;;;;;10.47;7.17;;;1.30;99.90;;;;;;5053856;28;20238;-75
2022/03/07 01:10:27;;;;;;;9.30;6.87;;;1.30;99.90;;;;;;5053314;28;20191;-75
2022/03/07 01:12:52;;;;;;;12.47;7.20;;;1.30;99.90;;;;;;5052055;28;20237;-74
2022/03/07 01:15:18;;;;;;;9.07;6.60;;;1.30;99.90;;;;;;5049070;28;20265;-75
2022/03/07 01:17:44;;;;;;;11.40;7.60;;;1.30;99.90;;;;;;5051423;28;20198;-78
2022/03/07 01:20:11;;;;;;;12.20;7.03;;;1.30;99.90;;;;;;5066858;28;20194;-78
2022/03/07 01:22:38;;;;;;;9.90;7.17;;;1.30;99.90;;;;;;5054869;28;20211;-75
2022/03/07 01:25:06;;;;;;;8.57;6.40;;;1.30;99.90;;;;;;5055922;28;20186;-78
2022/03/07 01:27:32;;;;;;;10.53;6.83;;;1.30;99.90;;;;;;5052791;28;20199;-76
2022/03/07 01:29:57;;;;;;;9.20;6.97;;;1.30;99.90;;;;;;5053720;28;20182;-75
2022/03/07 01:32:23;;;;;;;7.97;7.17;;;1.30;99.90;;;;;;5051779;28;20685;-76
2022/03/07 01:34:49;;;;;;;9.70;6.87;;;1.30;99.90;;;;;;5054906;28;20186;-77
2022/03/07 01:37:15;;;;;;;11.40;6.40;;;1.30;99.90;;;;;;5054203;28;20259;-77
2022/03/07 01:39:41;;;;;;;9.80;7.00;;;1.40;99.90;;;;;;5051798;28;20193;-77
2022/03/07 01:42:07;;;;;;;10.00;6.50;;;1.40;99.90;;;;;;5071855;28;20698;-75
2022/03/07 01:44:32;;;;;;;9.17;6.40;;;1.40;99.90;;;;;;5054391;28;20186;-76
2022/03/07 01:46:58;;;;;;;11.23;7.40;;;1.40;99.90;;;;;;5052840;28;20207;-79
2022/03/07 01:49:25;;;;;;;10.07;6.27;;;1.40;99.90;;;;;;5054724;28;20252;-75
2022/03/07 01:51:51;;;;;;;12.00;6.73;;;1.40;99.90;;;;;;5053718;28;20175;-75
2022/03/07 01:54:19;;;;;;;8.00;6.63;;;1.40;99.90;;;;;;5085958;28;20197;-75
2022/03/07 01:56:47;;;;;;;8.37;6.53;;;1.40;99.90;;;;;;5053790;28;20204;-75
2022/03/07 01:59:25;;;;;;;11.63;6.63;;;1.40;99.90;;;;;;5049375;28;20742;-75
2022/03/07 02:01:51;;;;;;;11.63;6.17;;;1.50;99.90;;;;;;5052907;28;20214;-77
2022/03/07 02:04:17;;;;;;;8.40;6.63;;;1.50;99.90;;;;;;5056890;28;20185;-75
2022/03/07 02:06:45;;;;;;;9.00;7.07;;;1.50;99.90;;;;;;5074930;28;20182;-75
2022/03/07 02:09:11;;;;;;;8.90;7.30;;;1.40;99.90;;;;;;5054433;28;20174;-74
2022/03/07 02:11:38;;;;;;;9.43;6.97;;;1.40;99.90;;;;;;5050059;28;20259;-75
2022/03/07 02:14:16;;;;;;;14.60;6.97;;;1.40;99.90;;;;;;5060086;28;20171;-75
2022/03/07 02:16:42;;;;;;;11.20;7.40;;;1.40;99.90;;;;;;5046640;28;20177;-75
2022/03/07 02:19:08;;;;;;;12.30;7.70;;;1.40;99.90;;;;;;5057402;28;20171;-75
2022/03/07 02:21:34;;;;;;;10.47;7.60;;;1.40;99.90;;;;;;5045502;28;20788;-75
2022/03/07 02:24:01;;;;;;;10.13;6.90;;;1.50;99.90;;;;;;5053299;28;20265;-75
2022/03/07 02:26:26;;;;;;;10.13;6.80;;;1.40;99.90;;;;;;5076747;28;20171;-76
2022/03/07 02:28:52;;;;;;;11.43;7.33;;;1.50;99.90;;;;;;5057885;28;20176;-77
2022/03/07 02:31:20;;;;;;;10.83;6.43;;;1.50;99.90;;;;;;5039412;28;20186;-75
2022/03/07 02:33:48;;;;;;;12.93;6.73;;;1.50;99.90;;;;;;5045519;28;20269;-75
2022/03/07 02:36:14;;;;;;;10.73;7.17;;;1.50;99.90;;;;;;5055590;28;20171;-75
2022/03/07 02:38:40;;;;;;;8.23;6.40;;;1.60;99.90;;;;;;5052199;28;20257;-76
2022/03/07 02:41:06;;;;;;;9.27;6.90;;;1.50;99.90;;;;;;5035124;28;20267;-75
2022/03/07 02:43:32;;;;;;;12.60;7.37;;;1.50;99.90;;;;;;5057029;28;20190;-75
2022/03/07 02:45:58;;;;;;;13.43;6.87;;;1.50;99.90;;;;;;5051987;28;20186;-75
2022/03/07 02:48:25;;;;;;;9.20;6.70;;;1.50;99.90;;;;;;5066725;28;20187;-76
2022/03/07 02:50:51;;;;;;;8.93;7.00;;;1.50;99.90;;;;;;5055262;28;20178;-76
2022/03/07 02:53:17;;;;;;;8.93;7.10;;;1.50;99.90;;;;;;5048413;28;20187;-77
2022/03/07 02:55:43;;;;;;;8.90;6.50;;;1.50;99.90;;;;;;5039639;28;20666;-76
2022/03/07 02:58:09;;;;;;;10.03;7.13;;;1.50;99.90;;;;;;5067235;28;20195;-77
2022/03/07 03:00:35;;;;;;;10.20;6.67;;;1.50;99.90;;;;;;5054336;28;20315;-75
2022/03/07 03:03:01;;;;;;;9.77;6.53;;;1.50;99.90;;;;;;5050926;28;20203;-76
2022/03/07 03:05:27;;;;;;;9.17;7.00;;;1.50;99.90;;;;;;5035287;28;20176;-75
2022/03/07 03:07:53;;;;;;;10.10;6.87;;;1.40;99.90;;;;;;5055358;28;20194;-75
2022/03/07 03:10:20;;;;;;;10.63;6.83;;;1.40;99.90;;;;;;5053065;28;20171;-77
2022/03/07 03:12:49;;;;;;;10.73;6.83;;;1.50;99.90;;;;;;5064762;28;20222;-75
2022/03/07 03:15:15;;;;;;;13.03;6.93;;;1.50;99.90;;;;;;5070348;28;20179;-76
2022/03/07 03:17:42;;;;;;;11.33;7.33;;;1.50;99.90;;;;;;5054289;28;20237;-75
2022/03/07 03:20:10;;;;;;;10.40;6.53;;;1.40;99.90;;;;;;5057305;28;20646;-76
2022/03/07 03:22:37;;;;;;;10.47;6.87;;;1.50;99.90;;;;;;5066507;28;20193;-75
2022/03/07 03:25:04;;;;;;;13.07;7.50;;;1.40;99.90;;;;;;5051419;28;20178;-75
2022/03/07 03:27:29;;;;;;;10.47;7.10;;;1.40;99.90;;;;;;5047653;28;20195;-75
2022/03/07 03:29:55;;;;;;;9.30;7.10;;;1.40;99.90;;;;;;5067418;28;20174;-76
2022/03/07 03:32:21;;;;;;;9.10;7.43;;;1.40;99.90;;;;;;5054375;28;20286;-76
2022/03/07 03:34:47;;;;;;;10.70;6.93;;;1.40;99.90;;;;;;5040872;28;20743;-77
2022/03/07 03:37:12;;;;;;;12.03;7.37;;;1.40;99.90;;;;;;5046802;28;20302;-76
2022/03/07 03:39:38;;;;;;;12.47;7.23;;;1.40;99.90;;;;;;5070766;28;20174;-78
2022/03/07 03:42:04;;;;;;;8.83;7.17;;;1.40;99.90;;;;;;5067543;28;20210;-76
2022/03/07 03:44:30;;;;;;;10.97;7.70;;;1.30;99.90;;;;;;5056566;28;20171;-76
2022/03/07 03:46:55;;;;;;;10.93;7.57;;;1.30;99.90;;;;;;5056717;28;20203;-75
2022/03/07 03:49:21;;;;;;;11.37;6.53;;;1.30;99.90;;;;;;5061844;28;20525;-75
2022/03/07 03:51:47;;;;;;;11.60;6.97;;;1.30;99.90;;;;;;5071587;28;20204;-74
2022/03/07 03:54:12;;;;;;;8.80;6.77;;;1.30;99.90;;;;;;5069208;28;20171;-76
2022/03/07 03:56:38;;;;;;;8.57;6.87;;;1.30;99.90;;;;;;5053130;28;20174;-78
2022/03/07 03:59:03;;;;;;;10.07;7.07;;;1.20;99.90;;;;;;5060354;28;20228;-76
2022/03/07 04:01:29;;;;;;;9.80;6.87;;;1.20;99.90;;;;;;5047991;28;20187;-75
2022/03/07 04:03:56;;;;;;;12.10;7.00;;;1.10;99.90;;;;;;5053651;28;20218;-76
2022/03/07 04:06:22;;;;;;;9.20;6.47;;;1.10;99.90;;;;;;5068448;28;20179;-77
2022/03/07 04:08:50;;;;;;;11.10;7.60;;;1.00;99.90;;;;;;5051433;28;20243;-75
2022/03/07 04:11:16;;;;;;;9.87;7.43;;;1.00;99.90;;;;;;5070924;28;20171;-75
2022/03/07 04:13:42;;;;;;;11.23;7.47;;;1.00;99.90;;;;;;5033070;28;20179;-76
2022/03/07 04:16:07;;;;;;;8.97;6.73;;;0.90;99.90;;;;;;5062633;28;20186;-77
2022/03/07 04:18:33;;;;;;;9.40;6.97;;;0.90;99.90;;;;;;5068510;28;20631;-77
2022/03/07 04:20:59;;;;;;;8.97;6.87;;;0.90;99.90;;;;;;5053583;28;20209;-75
2022/03/07 04:23:25;;;;;;;10.40;7.13;;;0.80;99.90;;;;;;5057904;28;20207;-75
2022/03/07 04:25:51;;;;;;;13.20;6.90;;;0.80;99.90;;;;;;5049605;28;20178;-76
2022/03/07 04:28:17;;;;;;;9.70;7.10;;;0.80;99.90;;;;;;5059904;28;20582;-77
2022/03/07 04:30:43;;;;;;;11.60;7.43;;;0.80;99.90;;;;;;5063284;28;20174;-77
2022/03/07 04:33:09;;;;;;;9.87;7.10;;;0.80;99.90;;;;;;5040609;28;20183;-75
2022/03/07 04:35:35;;;;;;;11.03;6.97;;;0.80;99.90;;;;;;5044572;28;20182;-78
2022/03/07 04:38:01;;;;;;;11.10;6.63;;;0.70;99.90;;;;;;5050014;28;20199;-76
2022/03/07 04:40:28;;;;;;;12.53;6.97;;;0.70;99.90;;;;;;5070947;28;20186;-75
2022/03/07 04:42:56;;;;;;;9.67;7.23;;;0.70;99.90;;;;;;5042234;28;20210;-77
2022/03/07 04:45:22;;;;;;;11.37;7.20;;;0.70;99.90;;;;;;5051609;28;20207;-77
2022/03/07 04:47:48;;;;;;;10.87;6.97;;;0.60;99.90;;;;;;5063557;28;20233;-75
2022/03/07 04:50:14;;;;;;;10.13;7.53;;;0.50;99.90;;;;;;5063713;28;20205;-77
2022/03/07 04:52:42;;;;;;;9.57;7.40;;;0.50;99.90;;;;;;5071039;28;20175;-76
2022/03/07 04:55:09;;;;;;;9.23;7.00;;;0.50;99.90;;;;;;5052250;28;20190;-76
2022/03/07 04:57:35;;;;;;;8.90;7.20;;;0.50;99.90;;;;;;5063567;28;20190;-76
2022/03/07 05:00:01;;;;;;;11.73;8.03;;;0.50;99.90;;;;;;5058575;28;20183;-77
2022/03/07 05:02:26;;;;;;;14.73;8.07;;;0.50;99.90;;;;;;5076037;28;20212;-76
2022/03/07 05:04:52;;;;;;;11.77;7.20;;;0.50;99.90;;;;;;5060264;28;20171;-76
2022/03/07 05:07:18;;;;;;;12.87;7.40;;;0.50;99.90;;;;;;5057683;28;20264;-75
2022/03/07 05:09:45;;;;;;;11.93;7.40;;;0.50;99.90;;;;;;5055356;28;20618;-75
2022/03/07 05:12:10;;;;;;;11.10;7.57;;;0.50;99.90;;;;;;5036953;28;20662;-77
2022/03/07 05:14:36;;;;;;;10.87;7.30;;;0.50;99.90;;;;;;5039691;28;20183;-77
2022/03/07 05:17:02;;;;;;;9.50;6.97;;;0.50;99.90;;;;;;5063323;28;20200;-76
2022/03/07 05:19:28;;;;;;;9.20;7.10;;;0.50;99.90;;;;;;5074268;28;20221;-77
2022/03/07 05:21:53;;;;;;;11.10;7.77;;;0.50;99.90;;;;;;5057802;28;20182;-77
2022/03/07 05:24:19;;;;;;;11.57;7.23;;;0.50;99.90;;;;;;5045385;28;20183;-76
2022/03/07 05:26:44;;;;;;;10.40;7.50;;;0.40;99.90;;;;;;5079870;28;20178;-77
2022/03/07 05:29:10;;;;;;;10.33;7.43;;;0.50;99.90;;;;;;5064235;28;20234;-76
2022/03/07 05:31:36;;;;;;;9.67;7.30;;;0.50;99.90;;;;;;5056588;28;20182;-76
2022/03/07 05:34:02;;;;;;;11.87;7.57;;;0.40;99.90;;;;;;5056130;28;20182;-76
2022/03/07 05:36:27;;;;;;;10.70;8.00;;;0.50;99.90;;;;;;5049062;28;20182;-77
2022/03/07 05:38:53;;;;;;;12.00;8.40;;;0.50;99.90;;;;;;5058747;28;20212;-76
2022/03/07 05:41:19;;;;;;;13.10;8.27;;;0.50;99.90;;;;;;5055230;28;20203;-76
2022/03/07 05:43:44;;;;;;;11.53;7.90;;;0.50;99.90;;;;;;5062389;28;20204;-76
2022/03/07 05:46:10;;;;;;;12.43;8.23;;;0.50;99.90;;;;;;5060724;28;20630;-76
2022/03/07 05:48:36;;;;;;;10.43;8.10;;;0.50;99.90;;;;;;5068221;28;20238;-76
2022/03/07 05:51:01;;;;;;;15.50;8.93;;;0.50;99.90;;;;;;5076277;28;20261;-77
2022/03/07 05:53:27;;;;;;;12.00;8.53;;;0.60;99.90;;;;;;5060498;28;20244;-77
2022/03/07 05:55:53;;;;;;;11.53;8.33;;;0.60;99.90;;;;;;5043615;28;20261;-76
2022/03/07 05:58:19;;;;;;;9.60;7.90;;;0.60;99.90;;;;;;5053230;28;20239;-76
2022/03/07 06:00:44;;;;;;;13.97;8.70;;;0.60;99.90;;;;;;5061746;28;20190;-76
2022/03/07 06:03:11;;;;;;;11.83;9.17;;;0.60;99.90;;;;;;5063193;28;20206;-76
2022/03/07 06:05:37;;;;;;;11.37;8.70;;;0.60;99.90;;;;;;5060076;28;20174;-73
2022/03/07 06:08:04;;;;;;;12.90;9.00;;;0.60;99.90;;;;;;5056369;28;20203;-74
2022/03/07 06:10:30;;;;;;;11.83;8.13;;;0.60;99.90;;;;;;5053505;28;20605;-75
2022/03/07 06:12:55;;;;;;;14.43;8.73;;;0.60;99.90;;;;;;5049547;28;20222;-74
2022/03/07 06:15:21;;;;;;;19.37;9.77;;;0.60;99.90;;;;;;5064759;28;20205;-75
2022/03/07 06:17:55;;;;;;;14.37;10.10;;;0.60;99.90;;;;;;5056784;28;20260;-75
2022/03/07 06:20:22;;;;;;;19.87;10.17;;;0.60;99.90;;;;;;5048281;28;20190;-74
2022/03/07 06:22:48;;;;;;;15.57;9.87;;;0.60;99.90;;;;;;5088833;28;20210;-75
2022/03/07 06:25:14;;;;;;;12.73;10.10;;;0.60;99.90;;;;;;5061273;28;20178;-78
2022/03/07 06:27:40;;;;;;;19.43;10.50;;;0.60;99.90;;;;;;5054068;28;20191;-76
2022/03/07 06:30:08;;;;;;;17.37;10.13;;;0.70;99.90;;;;;;5065055;28;20270;-77
2022/03/07 06:32:37;;;;;;;15.77;10.23;;;0.70;99.90;;;;;;5059006;28;20183;-76
2022/03/07 06:35:04;;;;;;;16.23;9.83;;;0.70;99.90;;;;;;5081694;28;20207;-76
2022/03/07 06:37:30;;;;;;;16.00;10.73;;;0.70;99.90;;;;;;5063083;28;20210;-76
2022/03/07 06:39:55;;;;;;;14.90;11.23;;;0.80;99.90;;;;;;5057275;28;20265;-76
2022/03/07 06:42:21;;;;;;;18.63;10.87;;;0.70;99.90;;;;;;5087866;28;20282;-76
2022/03/07 06:44:47;;;;;;;14.20;11.33;;;0.80;99.90;;;;;;5046150;28;20186;-76
2022/03/07 06:47:13;;;;;;;21.83;11.20;;;0.80;99.90;;;;;;5068882;28;20198;-76
2022/03/07 06:49:40;;;;;;;18.60;10.60;;;0.90;99.90;;;;;;5058216;28;20192;-76
2022/03/07 06:52:06;;;;;;;16.33;11.00;;;0.90;99.90;;;;;;5089947;28;20265;-76
2022/03/07 06:54:32;;;;;;;16.47;10.43;;;0.90;99.90;;;;;;5075974;28;20209;-76
2022/03/07 06:56:58;;;;;;;12.50;10.00;;;0.90;99.90;;;;;;5051502;28;20202;-74
2022/03/07 06:59:24;;;;;;;13.60;9.90;;;1.00;99.90;;;;;;5061387;28;20205;-75
2022/03/07 07:01:51;;;;;;;13.23;10.30;;;1.00;99.90;;;;;;5058711;28;20230;-75
2022/03/07 07:04:18;;;;;;;16.77;9.93;;;1.00;99.90;;;;;;5067505;28;20181;-75
2022/03/07 07:06:43;;;;;;;22.27;10.70;;;1.00;99.90;;;;;;5074259;28;20175;-75
2022/03/07 07:09:09;;;;;;;17.13;10.70;;;1.00;99.90;;;;;;5081728;28;20645;-75
2022/03/07 07:11:35;;;;;;;14.53;10.90;;;1.10;99.90;;;;;;5060416;28;20190;-74
2022/03/07 07:14:01;;;;;;;20.67;10.33;;;1.10;99.90;;;;;;5080805;28;20231;-73
2022/03/07 07:16:27;;;;;;;19.40;10.37;;;1.20;99.90;;;;;;5074665;28;20187;-74
2022/03/07 07:18:52;;;;;;;18.20;11.10;;;1.20;99.90;;;;;;5068039;28;20199;-75
2022/03/07 07:21:18;;;;;;;15.60;11.57;;;1.30;99.90;;;;;;5054158;28;20190;-75
2022/03/07 07:23:43;;;;;;;18.40;11.53;;;1.30;99.90;;;;;;5085674;28;20213;-76
2022/03/07 07:26:10;;;;;;;22.23;12.47;;;1.30;99.90;;;;;;5076223;28;20181;-76
2022/03/07 07:28:36;;;;;;;20.87;11.80;;;1.40;99.90;;;;;;5063836;28;20182;-75
2022/03/07 07:31:01;;;;;;;19.80;13.20;;;1.40;99.90;;;;;;5074749;28;20507;-75
2022/03/07 07:33:27;;;;;;;22.23;13.70;;;1.50;99.90;;;;;;5081095;28;20182;-75
2022/03/07 07:35:53;;;;;;;21.53;13.07;;;1.50;99.90;;;;;;5087625;28;20221;-76
2022/03/07 07:38:19;;;;;;;23.20;12.33;;;1.50;99.90;;;;;;5078871;28;20196;-75
2022/03/07 07:40:45;;;;;;;17.53;11.57;;;1.60;99.90;;;;;;5083799;28;20186;-75
2022/03/07 07:43:10;;;;;;;18.23;12.23;;;1.60;99.90;;;;;;5094770;28;20201;-76
2022/03/07 07:45:36;;;;;;;18.77;12.67;;;1.70;99.90;;;;;;5037447;28;20184;-74
2022/03/07 07:48:02;;;;;;;21.80;13.23;;;1.80;99.90;;;;;;5086926;28;20232;-75
2022/03/07 07:50:28;;;;;;;23.87;13.30;;;1.80;99.90;;;;;;5091456;28;20167;-75
2022/03/07 07:52:56;;;;;;;19.47;13.00;;;1.80;99.90;;;;;;5088811;28;20622;-74
2022/03/07 07:55:23;;;;;;;23.03;13.23;;;1.80;99.90;;;;;;5083126;28;20184;-74
2022/03/07 07:57:49;;;;;;;24.37;13.67;;;1.90;99.90;;;;;;5076318;28;20198;-75
2022/03/07 08:00:19;;;;;;;31.07;14.13;;;1.90;99.90;;;;;;5072006;28;20206;-75
2022/03/07 08:02:49;;;;;;;24.77;14.10;;;1.90;99.90;;;;;;5063279;28;20233;-75
2022/03/07 08:05:15;;;;;;;27.87;14.70;;;2.00;99.90;;;;;;5077192;28;20206;-73
2022/03/07 08:07:42;;;;;;;28.07;15.43;;;2.00;99.90;;;;;;5092553;28;20204;-75
2022/03/07 08:10:09;;;;;;;30.63;15.87;;;2.00;99.90;;;;;;5093889;28;20171;-73
2022/03/07 08:12:35;;;;;;;31.87;15.77;;;2.00;99.90;;;;;;5071432;28;20178;-74
2022/03/07 08:15:00;;;;;;;24.00;15.30;;;2.00;99.90;;;;;;5066224;28;20193;-75
2022/03/07 08:17:26;;;;;;;33.77;18.23;;;2.10;99.90;;;;;;5071455;28;20202;-74
2022/03/07 08:19:52;;;;;;;40.00;17.33;;;2.10;99.90;;;;;;5081419;28;20178;-74
2022/03/07 08:22:17;;;;;;;35.10;18.80;;;2.20;99.90;;;;;;5033699;28;20198;-75
2022/03/07 08:24:43;;;;;;;39.10;19.70;;;2.20;99.90;;;;;;5043470;28;20237;-74
2022/03/07 08:27:09;;;;;;;44.53;20.90;;;2.20;99.90;;;;;;5059620;28;20209;-74
2022/03/07 08:29:34;;;;;;;37.40;21.93;;;2.20;99.90;;;;;;5067189;28;20174;-73
2022/03/07 08:32:00;;;;;;;37.90;21.60;;;2.30;99.90;;;;;;5058142;28;20266;-74
2022/03/07 08:34:25;;;;;;;39.73;22.33;;;2.30;99.90;;;;;;5065974;28;20179;-74
2022/03/07 08:36:51;;;;;;;41.07;22.57;;;2.30;99.90;;;;;;5074536;28;20231;-74
2022/03/07 08:39:16;;;;;;;41.70;21.20;;;2.30;99.90;;;;;;5044406;28;20176;-74
2022/03/07 08:41:42;;;;;;;37.90;21.33;;;2.40;99.90;;;;;;5088289;28;20175;-74
2022/03/07 08:44:08;;;;;;;38.53;21.97;;;2.40;99.90;;;;;;5069478;28;20245;-74
2022/03/07 08:46:33;;;;;;;46.20;22.40;;;2.50;99.90;;;;;;5047876;28;20238;-74
2022/03/07 08:48:59;;;;;;;50.03;22.90;;;2.50;99.90;;;;;;5062163;28;20245;-76
2022/03/07 08:51:24;;;;;;;51.83;24.40;;;2.60;99.90;;;;;;5052583;28;20203;-75
2022/03/07 08:53:50;;;;;;;47.07;24.70;;;2.60;99.90;;;;;;5062057;28;20199;-74
2022/03/07 08:56:16;;;;;;;56.43;25.77;;;2.60;99.90;;;;;;5087364;28;20172;-74
2022/03/07 08:58:41;;;;;;;49.57;25.07;;;2.70;99.90;;;;;;5063906;28;20300;-72
2022/03/07 09:01:07;;;;;;;42.60;22.80;;;2.70;99.90;;;;;;5048153;28;20193;-73
2022/03/07 09:03:34;;;;;;;44.70;21.20;;;2.80;99.90;;;;;;5062619;28;20200;-73
2022/03/07 09:06:00;;;;;;;41.63;21.33;;;2.80;99.90;;;;;;5057332;28;20191;-74
2022/03/07 09:08:26;;;;;;;37.80;20.77;;;2.90;99.90;;;;;;5093998;28;20224;-73
2022/03/07 09:10:51;;;;;;;38.20;21.00;;;2.90;99.90;;;;;;5060627;28;20211;-73
2022/03/07 09:13:17;;;;;;;34.63;20.23;;;2.90;99.90;;;;;;5086048;28;20189;-74
2022/03/07 09:15:45;;;;;;;37.23;20.60;;;2.90;99.90;;;;;;5075684;28;20200;-73
2022/03/07 09:18:12;;;;;;;32.70;18.73;;;3.00;99.90;;;;;;5059959;28;20698;-74
2022/03/07 09:20:39;;;;;;;35.67;19.97;;;3.00;99.90;;;;;;5067619;28;20181;-73
2022/03/07 09:23:04;;;;;;;40.00;22.10;;;3.00;99.90;;;;;;5084061;28;20202;-73
2022/03/07 09:25:30;;;;;;;41.17;22.87;;;3.00;99.90;;;;;;5061881;28;20244;-74
2022/03/07 09:27:56;;;;;;;37.83;21.37;;;3.00;99.90;;;;;;5084608;28;20191;-74
2022/03/07 09:30:21;;;;;;;43.80;23.53;;;3.00;99.90;;;;;;5070731;28;20512;-74
2022/03/07 09:32:47;;;;;;;44.30;22.97;;;3.00;99.90;;;;;;5096759;28;20171;-73
2022/03/07 09:35:14;;;;;;;45.10;22.43;;;3.10;99.90;;;;;;5105098;28;20173;-74
2022/03/07 09:37:40;;;;;;;47.43;23.00;;;3.10;99.90;;;;;;5086635;28;20192;-75
2022/03/07 09:40:06;;;;;;;47.93;23.17;;;3.00;99.90;;;;;;5051193;28;20195;-74
2022/03/07 09:42:32;;;;;;;44.70;23.83;;;3.00;99.90;;;;;;5062416;28;20261;-74
2022/03/07 09:44:57;;;;;;;46.23;23.30;;;3.00;99.90;;;;;;5038964;28;20206;-73
2022/03/07 09:47:23;;;;;;;48.20;25.43;;;3.10;99.90;;;;;;5052891;28;20191;-74
2022/03/07 09:49:52;;;;;;;50.53;25.23;;;3.10;99.90;;;;;;5048058;28;20181;-74
2022/03/07 09:52:18;;;;;;;47.00;24.43;;;3.10;99.90;;;;;;5061165;28;20177;-74
2022/03/07 09:54:43;;;;;;;48.00;25.33;;;3.20;99.90;;;;;;5065530;28;20223;-75
2022/03/07 09:57:09;;;;;;;54.10;26.47;;;3.20;99.90;;;;;;5082658;28;20231;-75
2022/03/07 09:59:35;;;;;;;50.33;24.27;;;3.20;99.90;;;;;;5051167;28;20192;-74
2022/03/07 10:02:06;;;;;;;50.80;26.47;;;3.30;99.90;;;;;;5069467;28;20199;-74
2022/03/07 10:04:40;;;;;;;52.57;25.40;;;3.30;99.90;;;;;;5051673;28;20173;-74
2022/03/07 10:07:05;;;;;;;51.13;25.90;;;3.30;99.90;;;;;;5050648;28;20212;-74
2022/03/07 10:09:31;;;;;;;50.37;26.80;;;3.30;99.90;;;;;;5085758;28;20177;-75
2022/03/07 10:12:03;;;;;;;51.13;26.20;;;3.30;99.90;;;;;;5051099;28;20188;-74
2022/03/07 10:14:44;;;;;;;53.80;27.50;;;3.30;99.90;;;;;;5049324;28;20258;-74
2022/03/07 10:17:30;;;;;;;54.53;27.03;;;3.40;99.90;;;;;;5068499;28;20231;-74
2022/03/07 10:20:01;;;;;;;59.60;28.77;;;3.40;99.90;;;;;;5068034;28;20178;-74
2022/03/07 10:22:28;;;;;;;50.93;26.40;;;3.50;99.90;;;;;;5069382;28;20275;-74
2022/03/07 10:25:12;;;;;;;48.93;26.37;;;3.50;99.90;;;;;;5085166;28;20186;-74
2022/03/07 10:27:44;;;;;;;49.73;26.10;;;3.50;99.90;;;;;;5048390;28;20192;-74
2022/03/07 10:30:14;;;;;;;49.97;25.73;;;3.60;99.90;;;;;;5049271;28;20177;-74
2022/03/07 10:32:41;;;;;;;60.20;26.07;;;3.60;99.90;;;;;;5068120;28;20173;-74
2022/03/07 10:35:07;;;;;;;48.50;25.00;;;3.60;99.90;;;;;;5052621;28;20695;-74
2022/03/07 10:37:39;;;;;;;54.03;26.77;;;3.60;99.90;;;;;;5050069;28;20193;-74
2022/03/07 10:40:18;;;;;;;63.17;28.40;;;3.60;99.90;;;;;;5053149;28;20172;-74
2022/03/07 10:42:45;;;;;;;50.87;23.67;;;3.60;99.90;;;;;;5050776;28;20230;-74
2022/03/07 10:45:11;;;;;;;48.07;21.53;;;3.70;99.90;;;;;;5049436;28;20261;-74
2022/03/07 10:47:37;;;;;;;45.20;22.63;;;3.80;99.90;;;;;;5068976;28;20203;-74
2022/03/07 10:50:04;;;;;;;50.33;23.23;;;3.80;99.90;;;;;;5068840;28;20192;-74
2022/03/07 10:52:37;;;;;;;54.97;24.90;;;3.80;99.90;;;;;;5051053;28;20262;-74
2022/03/07 10:55:08;;;;;;;54.30;25.93;;;3.90;99.90;;;;;;5051137;28;20181;-74
2022/03/07 10:57:39;;;;;;;52.07;25.07;;;3.90;99.90;;;;;;5066923;28;20204;-75
2022/03/07 11:00:17;;;;;;;55.07;23.50;;;3.90;99.90;;;;;;5083364;28;20821;-74
2022/03/07 11:02:47;;;;;;;44.37;22.37;;;3.90;99.90;;;;;;5049630;28;20203;-74
2022/03/07 11:05:16;;;;;;;45.23;23.30;;;3.90;99.90;;;;;;5083209;28;20786;-74
2022/03/07 11:07:44;;;;;;;47.80;22.80;;;4.00;99.90;;;;;;5082223;28;20201;-74
2022/03/07 11:10:11;;;;;;;42.30;20.97;;;4.10;99.90;;;;;;5068285;28;20205;-74
2022/03/07 11:12:38;;;;;;;44.67;22.07;;;4.10;99.90;;;;;;5049041;28;20174;-75
2022/03/07 11:15:08;;;;;;;44.43;20.83;;;4.20;99.90;;;;;;5065846;28;20196;-74
2022/03/07 11:17:41;;;;;;;40.07;20.17;;;4.30;99.90;;;;;;5067069;28;20749;-74
2022/03/07 11:20:09;;;;;;;35.57;17.77;;;4.30;99.90;;;;;;5066877;28;20644;-76
2022/03/07 11:22:35;;;;;;;36.67;17.77;;;4.30;99.90;;;;;;5066881;28;20285;-74
2022/03/07 11:25:02;;;;;;;36.00;18.90;;;4.30;99.90;;;;;;5048460;28;20276;-74
2022/03/07 11:27:28;;;;;;;34.53;18.07;;;4.30;99.90;;;;;;5048474;28;20209;-74
2022/03/07 11:29:55;;;;;;;38.60;18.33;;;4.30;99.90;;;;;;5063699;28;20204;-74
2022/03/07 11:32:21;;;;;;;32.83;15.03;;;4.40;99.90;;;;;;5082246;28;20175;-75
2022/03/07 11:34:59;;;;;;;27.10;13.83;;;4.40;99.90;;;;;;5048895;28;20187;-74
2022/03/07 11:37:30;;;;;;;21.80;11.53;;;4.50;99.90;;;;;;5065963;28;20206;-74
2022/03/07 11:39:58;;;;;;;22.17;12.27;;;4.50;99.90;;;;;;5066461;28;20179;-74
2022/03/07 11:42:33;;;;;;;18.77;10.20;;;4.60;99.90;;;;;;5049175;28;20908;-74
2022/03/07 11:45:08;;;;;;;19.33;10.10;;;4.60;99.90;;;;;;5049557;28;20205;-74
2022/03/07 11:47:40;;;;;;;18.20;8.80;;;4.60;99.90;;;;;;5047032;28;20197;-74
2022/03/07 11:50:07;;;;;;;14.33;7.70;;;4.60;99.90;;;;;;5052164;28;20183;-75
2022/03/07 11:52:33;;;;;;;11.20;6.20;;;4.70;99.90;;;;;;5069290;28;20179;-74
2022/03/07 11:55:01;;;;;;;10.73;6.40;;;4.70;99.90;;;;;;5070359;28;20809;-74
2022/03/07 11:57:44;;;;;;;10.30;6.20;;;4.70;99.90;;;;;;5049295;28;20235;-74
2022/03/07 12:00:14;;;;;;;9.23;5.90;;;4.80;99.90;;;;;;5049031;28;20194;-75
2022/03/07 12:02:45;;;;;;;11.07;5.77;;;4.80;99.90;;;;;;5049098;28;20218;-74
2022/03/07 12:05:29;;;;;;;11.03;6.17;;;4.90;99.90;;;;;;5049506;28;20207;-74
2022/03/07 12:08:17;;;;;;;14.73;6.07;;;5.00;99.90;;;;;;5051244;28;20202;-74
2022/03/07 12:10:55;;;;;;;9.53;5.30;;;5.00;99.90;;;;;;5049532;28;20205;-74
2022/03/07 12:13:21;;;;;;;9.43;5.20;;;5.10;99.90;;;;;;5050831;28;20732;-74
2022/03/07 12:15:56;;;;;;;14.53;7.37;;;5.10;99.90;;;;;;5045793;28;20202;-74
2022/03/07 12:18:22;;;;;;;16.50;7.47;;;5.20;99.90;;;;;;5049866;28;20197;-74
2022/03/07 12:20:49;;;;;;;7.60;5.23;;;5.20;99.90;;;;;;5052568;28;20206;-74
2022/03/07 12:23:17;;;;;;;11.70;6.10;;;5.10;99.90;;;;;;5049804;28;20226;-74
2022/03/07 12:25:42;;;;;;;9.20;5.80;;;5.20;99.90;;;;;;5064630;28;20175;-74
2022/03/07 12:28:09;;;;;;;8.47;5.17;;;5.20;99.90;;;;;;5066681;28;20194;-74
2022/03/07 12:30:35;;;;;;;9.90;5.60;;;5.20;99.90;;;;;;5049115;28;20203;-75
2022/03/07 12:33:09;;;;;;;6.60;4.57;;;5.20;99.90;;;;;;5048378;28;20186;-75
2022/03/07 12:35:34;;;;;;;7.80;4.70;;;5.30;99.90;;;;;;5064313;28;20213;-75
2022/03/07 12:38:04;;;;;;;8.70;3.97;;;5.30;99.90;;;;;;5050222;28;20203;-74
2022/03/07 12:40:30;;;;;;;6.57;4.30;;;5.40;99.90;;;;;;5049055;28;20186;-75
2022/03/07 12:42:55;;;;;;;5.70;4.10;;;5.40;99.90;;;;;;5048529;28;20210;-75
2022/03/07 12:45:21;;;;;;;4.77;3.53;;;5.50;99.90;;;;;;5065860;28;20242;-74